»·PEaware :: WAT234 KSFO-KPSP

WAT234 :: KSFO-KPSP

FLIGHT INFORMATION

Flight Status: Arrived
Operator:
Walker Air Transport
More flights by this operator :: More flights under this callsign
Pilot: Eduardo Elias G. (24838)
Aircraft: BOEING 737-800
(B738)
More flights by this aircraft type
Origin: KSFO San Francisco Intl
United States
Destination: KPSP Palm Springs Intl
United States
More flights between these airports :: More routes between these airports
Route: SSTIK4 LOSHN CLASN SIZLR3
File this flight plan on PilotEdge
Remarks:
Altitude:
(Current/Filed)
37,000ft
Speed:
(Current/Filed)
480kts
Departed: 03-Oct-20 09:23 PM
Arrived: 03-Oct-20 10:31 PM
Distance/Time
Traveled:
365nm/1:08
Distance/Time
To Go:
Arrived

Flight Plot

Page will automatically refresh every two minutes.

Flight plan parsing failed; only flown route is shown


Map Options




Map Legend


Flown Route
Filed Route
Departure Airport
Arrival Airport
Navaid (VOR, NDB)
Fix

Horizontal Profiles

Position Reports

Time Latitude Longitude Heading Altitude Ground
Speed
03-Oct-20 20:54 37.612228 -122.384070 59 20ft 0kts
03-Oct-20 20:55 37.612228 -122.384070 59 20ft 0kts
03-Oct-20 20:56 37.612228 -122.384070 59 20ft 0kts
03-Oct-20 20:57 37.612228 -122.384070 59 20ft 0kts
03-Oct-20 20:58 37.612228 -122.384070 59 20ft 0kts
03-Oct-20 20:59 37.612228 -122.384070 59 20ft 0kts
03-Oct-20 21:00 37.612228 -122.384070 59 20ft 0kts
03-Oct-20 21:01 37.612228 -122.384070 59 20ft 0kts
03-Oct-20 21:02 37.612228 -122.384070 59 20ft 0kts
03-Oct-20 21:03 37.612228 -122.384070 59 20ft 0kts
03-Oct-20 21:04 37.612228 -122.384070 59 20ft 0kts
03-Oct-20 21:05 37.612228 -122.384070 59 20ft 0kts
03-Oct-20 21:06 37.612228 -122.384070 59 20ft 0kts
03-Oct-20 21:07 37.612228 -122.384070 59 20ft 0kts
03-Oct-20 21:08 37.612228 -122.384070 59 20ft 0kts
03-Oct-20 21:09 37.612228 -122.384070 59 20ft 0kts
03-Oct-20 21:11 37.612228 -122.384070 59 20ft 0kts
03-Oct-20 21:12 37.612228 -122.384070 59 20ft 0kts
03-Oct-20 21:13 37.612228 -122.384070 59 20ft 0kts
03-Oct-20 21:14 37.612110 -122.384529 106 20ft 2kts
03-Oct-20 21:15 37.612272 -122.384712 183 20ft 0kts
03-Oct-20 21:16 37.612272 -122.384712 183 20ft 0kts
03-Oct-20 21:17 37.612272 -122.384712 183 20ft 0kts
03-Oct-20 21:18 37.612272 -122.384712 183 20ft 0kts
03-Oct-20 21:19 37.611388 -122.384397 102 20ft 3kts
03-Oct-20 21:20 37.610067 -122.384095 216 20ft 2kts
03-Oct-20 21:21 37.609441 -122.383510 117 20ft 5kts
03-Oct-20 21:22 37.609141 -122.382820 119 20ft 8kts
03-Oct-20 21:23 37.623591 -122.372346 27 126ft 165kts
03-Oct-20 21:23 37.661549 -122.360565 354 2605ft 193kts
03-Oct-20 21:25 37.709743 -122.411034 257 5207ft 258kts
03-Oct-20 21:26 37.643834 -122.448132 187 8352ft 291kts
03-Oct-20 21:26 37.575825 -122.458674 188 9986ft 297kts
03-Oct-20 21:28 37.478512 -122.456068 147 10907ft 339kts
03-Oct-20 21:29 37.414619 -122.362293 127 13369ft 362kts
03-Oct-20 21:29 37.361723 -122.277432 128 15460ft 374kts
03-Oct-20 21:30 37.295230 -122.174107 128 17786ft 389kts
03-Oct-20 21:32 37.214099 -122.048112 128 20276ft 404kts
03-Oct-20 21:32 37.154152 -121.955743 128 21911ft 414kts
03-Oct-20 21:33 37.080228 -121.842451 128 23656ft 426kts
03-Oct-20 21:34 37.004240 -121.726433 129 25280ft 435kts
03-Oct-20 21:35 36.926525 -121.608197 129 26803ft 444kts
03-Oct-20 21:36 36.847013 -121.487658 129 28167ft 453kts
03-Oct-20 21:37 36.765933 -121.365179 129 29442ft 461kts
03-Oct-20 21:38 36.683798 -121.241335 129 30696ft 465kts
03-Oct-20 21:39 36.604366 -121.122006 130 32237ft 459kts
03-Oct-20 21:40 36.522891 -121.000586 131 33638ft 456kts
03-Oct-20 21:41 36.442056 -120.879927 131 34923ft 453kts
03-Oct-20 21:42 36.361584 -120.759968 131 36068ft 451kts
03-Oct-20 21:43 36.281171 -120.640509 131 36987ft 452kts
03-Oct-20 21:44 36.199196 -120.518025 131 36992ft 467kts
03-Oct-20 21:45 36.115918 -120.394646 131 36990ft 467kts
03-Oct-20 21:46 36.032549 -120.271298 131 36990ft 467kts
03-Oct-20 21:47 35.948998 -120.148588 131 36990ft 467kts
03-Oct-20 21:48 35.865646 -120.025682 128 36991ft 467kts
03-Oct-20 21:49 35.803642 -119.884474 115 36989ft 470kts
03-Oct-20 21:50 35.749282 -119.738049 116 36988ft 470kts
03-Oct-20 21:51 35.693897 -119.592047 116 36990ft 470kts
03-Oct-20 21:52 35.629579 -119.461128 131 36988ft 467kts
03-Oct-20 21:53 35.546477 -119.349394 133 36993ft 466kts
03-Oct-20 21:54 35.459392 -119.231643 133 36992ft 466kts
03-Oct-20 21:55 35.371662 -119.114195 133 36994ft 466kts
03-Oct-20 21:56 35.284253 -118.997712 133 37004ft 465kts
03-Oct-20 21:57 35.196089 -118.881370 134 37040ft 465kts
03-Oct-20 21:58 35.108857 -118.766564 134 37106ft 459kts
03-Oct-20 21:59 35.021969 -118.651761 133 34857ft 461kts
03-Oct-20 22:00 34.935304 -118.537624 133 32395ft 451kts
03-Oct-20 22:01 34.851007 -118.427727 134 30315ft 435kts
03-Oct-20 22:02 34.770125 -118.321257 130 28307ft 423kts
03-Oct-20 22:03 34.699228 -118.209716 129 26348ft 410kts
03-Oct-20 22:04 34.629812 -118.102616 130 24437ft 397kts
03-Oct-20 22:05 34.566683 -117.995040 119 22748ft 383kts
03-Oct-20 22:06 34.519737 -117.878874 118 21714ft 385kts
03-Oct-20 22:07 34.472241 -117.763388 118 20687ft 379kts
03-Oct-20 22:08 34.425708 -117.649390 117 19664ft 375kts
03-Oct-20 22:09 34.379789 -117.537124 117 18678ft 370kts
03-Oct-20 22:10 34.334057 -117.426071 117 17684ft 365kts
03-Oct-20 22:11 34.288512 -117.316929 119 16743ft 361kts
03-Oct-20 22:12 34.241348 -117.217004 119 16148ft 357kts
03-Oct-20 22:13 34.192118 -117.111992 119 16166ft 359kts
03-Oct-20 22:14 34.142808 -117.007453 119 16225ft 358kts
03-Oct-20 22:15 34.095193 -116.905959 119 15859ft 359kts
03-Oct-20 22:16 34.046556 -116.802072 119 14615ft 352kts
03-Oct-20 22:17 34.011569 -116.692484 106 13143ft 348kts
03-Oct-20 22:18 33.983261 -116.585946 106 11648ft 320kts
03-Oct-20 22:19 33.933498 -116.500943 137 9803ft 313kts
03-Oct-20 22:20 33.872155 -116.432230 136 8461ft 285kts
03-Oct-20 22:21 33.827602 -116.362469 110 7050ft 252kts
03-Oct-20 22:22 33.804795 -116.287037 110 6461ft 218kts
03-Oct-20 22:23 33.764866 -116.269285 225 5705ft 201kts
03-Oct-20 22:24 33.723620 -116.317301 219 4544ft 189kts
03-Oct-20 22:25 33.684220 -116.358718 243 4118ft 189kts
03-Oct-20 22:26 33.712623 -116.400682 326 3290ft 176kts
03-Oct-20 22:27 33.750875 -116.434929 321 2388ft 158kts
03-Oct-20 22:28 33.784230 -116.466351 322 1398ft 150kts
03-Oct-20 22:29 33.817477 -116.496744 323 607ft 145kts
03-Oct-20 22:30 33.836308 -116.514716 215 485ft 12kts
03-Oct-20 22:31 33.836043 -116.514846 194 485ft 0kts
03-Oct-20 22:32 33.834091 -116.513740 143 485ft 16kts
03-Oct-20 22:33 33.830139 -116.510239 143 485ft 19kts
03-Oct-20 22:34 33.826403 -116.506936 173 485ft 12kts
03-Oct-20 22:35 33.824003 -116.506482 189 485ft 4kts
03-Oct-20 22:36 33.823887 -116.506506 189 485ft 0kts
03-Oct-20 22:37 33.823887 -116.506506 189 485ft 0kts

Navigation Log

Ident Type
Flight plan parsing failed, navigation log unavailable